Time;durP1;ratioP1;P1;durP2;ratioP2;P2;SDS_P1;SDS_P2;PMS_P1;PMS_P2;Temp;Humidity;BMP_temperature;BMP_pressure;BME280_temperature;BME280_humidity;BME280_pressure;Samples;Min_cycle;Max_cycle;Signal;HPM_P1;HPM_P2
2022/05/06 00:01:46;;;;;;;;;;;15.00;96.80;;;;;;5079110;28;20504;-79
2022/05/06 00:04:16;;;;;;;;;;;15.10;96.80;;;;;;5079445;28;19954;-77
2022/05/06 00:06:43;;;;;;;;;;;15.20;96.40;;;;;;5079250;28;19947;-78
2022/05/06 00:09:10;;;;;;;;;;;15.30;97.70;;;;;;5077199;28;19915;-78
2022/05/06 00:11:36;;;;;;;;;;;15.30;96.60;;;;;;5076041;28;19954;-78
2022/05/06 00:14:04;;;;;;;;;;;15.30;95.50;;;;;;5076216;28;19912;-77
2022/05/06 00:16:30;;;;;;;;;;;15.30;95.90;;;;;;5076046;28;20428;-77
2022/05/06 00:18:57;;;;;;;;;;;15.30;95.70;;;;;;5076028;28;20332;-78
2022/05/06 00:21:24;;;;;;;;;;;15.30;96.70;;;;;;5075971;28;19908;-78
2022/05/06 00:23:50;;;;;;;;;;;15.40;96.10;;;;;;5075810;28;20363;-78
2022/05/06 00:26:17;;;;;;;;;;;15.50;96.40;;;;;;5075962;28;19908;-77
2022/05/06 00:28:44;;;;;;;;;;;15.50;96.30;;;;;;5075764;28;19909;-77
2022/05/06 00:31:12;;;;;;;;;;;15.50;96.50;;;;;;5075824;28;19940;-78
2022/05/06 00:33:38;;;;;;;;;;;15.40;96.00;;;;;;5075516;28;19908;-78
2022/05/06 00:36:05;;;;;;;;;;;15.50;96.30;;;;;;5075388;28;19916;-77
2022/05/06 00:38:32;;;;;;;;;;;15.50;96.60;;;;;;5075801;28;19914;-78
2022/05/06 00:40:59;;;;;;;;;;;15.60;96.30;;;;;;5075444;28;20015;-77
2022/05/06 00:43:25;;;;;;;;;;;15.70;96.20;;;;;;5075595;28;19913;-77
2022/05/06 00:45:53;;;;;;;;;;;15.70;96.00;;;;;;5075373;28;19908;-77
2022/05/06 00:48:22;;;;;;;;;;;15.80;96.10;;;;;;5075561;28;19942;-77
2022/05/06 00:50:49;;;;;;;;;;;15.80;96.40;;;;;;5075147;28;19924;-77
2022/05/06 00:53:16;;;;;;;;;;;15.90;96.60;;;;;;5075375;28;19957;-77
2022/05/06 00:55:43;;;;;;;;;;;16.00;95.90;;;;;;5074862;28;19916;-77
2022/05/06 00:58:09;;;;;;;;;;;15.90;95.80;;;;;;5075360;28;19915;-77
2022/05/06 01:00:36;;;;;;;;;;;15.90;95.80;;;;;;5075449;28;20351;-77
2022/05/06 01:03:03;;;;;;;;;;;16.20;96.00;;;;;;5075285;28;19909;-76
2022/05/06 01:05:31;;;;;;;;;;;16.40;95.30;;;;;;5075043;28;19908;-77
2022/05/06 01:08:00;;;;;;;;;;;16.50;95.30;;;;;;5075117;28;19908;-78
2022/05/06 01:10:27;;;;;;;;;;;16.80;95.10;;;;;;5075135;28;20389;-79
2022/05/06 01:12:53;;;;;;;;;;;16.90;94.80;;;;;;5075029;28;19943;-79
2022/05/06 01:15:20;;;;;;;;;;;17.00;94.60;;;;;;5074921;28;19918;-78
2022/05/06 01:17:47;;;;;;;;;;;17.20;94.50;;;;;;5074684;28;19913;-77
2022/05/06 01:20:17;;;;;;;;;;;17.40;95.50;;;;;;5074140;28;19995;-78
2022/05/06 01:22:45;;;;;;;;;;;17.50;94.60;;;;;;5074294;28;20007;-77
2022/05/06 01:25:12;;;;;;;;;;;17.30;94.70;;;;;;5074873;28;19912;-79
2022/05/06 01:27:44;;;;;;;;;;;17.20;94.70;;;;;;5074326;28;19908;-78
2022/05/06 01:30:13;;;;;;;;;;;17.20;95.20;;;;;;5074714;28;19908;-78
2022/05/06 01:32:39;;;;;;;;;;;17.10;96.00;;;;;;5074408;28;19943;-79
2022/05/06 01:35:06;;;;;;;;;;;17.10;95.10;;;;;;5074325;28;19920;-78
2022/05/06 01:37:34;;;;;;;;;;;17.00;94.10;;;;;;5074414;28;20003;-78
2022/05/06 01:40:03;;;;;;;;;;;17.00;94.20;;;;;;5074337;28;19915;-78
2022/05/06 01:42:33;;;;;;;;;;;17.00;94.50;;;;;;5074388;28;19909;-79
2022/05/06 01:45:01;;;;;;;;;;;17.10;94.90;;;;;;5074433;28;19916;-77
2022/05/06 01:47:29;;;;;;;;;;;17.00;93.60;;;;;;5073957;28;20259;-78
2022/05/06 01:49:58;;;;;;;;;;;16.90;93.50;;;;;;5073777;28;19965;-77
2022/05/06 01:52:25;;;;;;;;;;;16.80;94.10;;;;;;5074020;28;19908;-79
2022/05/06 01:54:52;;;;;;;;;;;16.80;94.40;;;;;;5074053;28;19915;-77
2022/05/06 01:57:18;;;;;;;;;;;16.80;94.30;;;;;;5074044;28;19917;-77
2022/05/06 01:59:45;;;;;;;;;;;16.80;94.60;;;;;;5073697;28;19908;-79
2022/05/06 02:02:11;;;;;;;;;;;16.80;95.10;;;;;;5073811;28;19936;-78
2022/05/06 02:07:23;;;;;;;;;;;16.80;94.50;;;;;;5073816;28;19915;-78
2022/05/06 02:09:49;;;;;;;;;;;16.80;95.10;;;;;;5073597;28;20358;-78
2022/05/06 02:12:16;;;;;;;;;;;16.80;94.60;;;;;;5073699;28;19909;-78
2022/05/06 02:14:43;;;;;;;;;;;16.80;94.40;;;;;;5073342;28;19919;-80
2022/05/06 02:17:09;;;;;;;;;;;16.90;94.10;;;;;;5074079;28;20236;-79
2022/05/06 02:19:36;;;;;;;;;;;16.90;94.20;;;;;;5083664;28;20346;-79
2022/05/06 02:22:03;;;;;;;;;;;16.90;93.30;;;;;;5072928;28;20401;-79
2022/05/06 02:24:29;;;;;;;;;;;16.90;93.60;;;;;;5073049;28;19954;-78
2022/05/06 02:26:56;;;;;;;;;;;16.80;92.80;;;;;;5088447;28;19970;-81
2022/05/06 02:29:23;;;;;;;;;;;16.90;92.90;;;;;;5100731;28;19908;-77
2022/05/06 02:34:34;;;;;;;;;;;17.00;93.30;;;;;;5114249;28;20408;-78
2022/05/06 02:37:01;;;;;;;;;;;16.90;93.10;;;;;;5113957;28;20406;-77
2022/05/06 02:39:27;;;;;;;;;;;16.90;92.80;;;;;;5113872;28;19908;-78
2022/05/06 02:41:55;;;;;;;;;;;17.00;92.50;;;;;;5113588;28;19961;-79
2022/05/06 02:44:22;;;;;;;;;;;17.00;93.90;;;;;;5113739;28;19907;-77
2022/05/06 02:46:49;;;;;;;;;;;17.00;92.30;;;;;;5113944;28;19912;-78
2022/05/06 02:49:16;;;;;;;;;;;17.10;92.20;;;;;;5112096;28;20274;-77
2022/05/06 02:51:42;;;;;;;;;;;17.10;91.70;;;;;;5113502;28;19934;-78
2022/05/06 02:54:09;;;;;;;;;;;17.00;92.10;;;;;;5113650;28;19908;-77
2022/05/06 02:56:36;;;;;;;;;;;17.00;91.80;;;;;;5113455;28;19939;-78
2022/05/06 02:59:04;;;;;;;;;;;17.10;91.50;;;;;;5113607;28;19999;-77
2022/05/06 03:01:31;;;;;;;;;;;17.20;91.90;;;;;;5113515;28;19951;-77
2022/05/06 03:03:57;;;;;;;;;;;17.20;92.30;;;;;;5113330;28;19915;-79
2022/05/06 03:06:24;;;;;;;;;;;17.20;92.00;;;;;;5113682;28;19912;-78
2022/05/06 03:08:50;;;;;;;;;;;17.20;92.00;;;;;;5113639;28;19931;-78
2022/05/06 03:11:17;;;;;;;;;;;17.20;91.70;;;;;;5113651;28;20330;-78
2022/05/06 03:13:44;;;;;;;;;;;17.10;92.00;;;;;;5113239;28;19908;-78
2022/05/06 03:16:11;;;;;;;;;;;17.10;92.60;;;;;;5113435;28;20293;-79
2022/05/06 03:18:37;;;;;;;;;;;17.40;92.80;;;;;;5113478;28;19953;-78
2022/05/06 03:21:04;;;;;;;;;;;17.30;92.60;;;;;;5113512;28;19908;-78
2022/05/06 03:23:31;;;;;;;;;;;17.40;92.20;;;;;;5113700;28;20030;-79
2022/05/06 03:25:57;;;;;;;;;;;17.40;92.10;;;;;;5113673;28;20003;-78
2022/05/06 03:28:24;;;;;;;;;;;17.30;92.60;;;;;;5113426;28;19927;-77
2022/05/06 03:30:52;;;;;;;;;;;17.40;92.20;;;;;;5113415;28;19908;-77
2022/05/06 03:33:18;;;;;;;;;;;17.50;92.10;;;;;;5113349;28;20282;-78
2022/05/06 03:35:45;;;;;;;;;;;17.40;92.40;;;;;;5112999;28;19916;-78
2022/05/06 03:38:12;;;;;;;;;;;17.40;92.40;;;;;;5113267;28;19908;-78
2022/05/06 03:40:40;;;;;;;;;;;17.50;92.40;;;;;;5113289;28;19915;-78
2022/05/06 03:43:12;;;;;;;;;;;17.40;91.90;;;;;;5113250;28;19908;-77
2022/05/06 03:45:39;;;;;;;;;;;17.60;92.20;;;;;;5115881;28;20340;-78
2022/05/06 03:48:06;;;;;;;;;;;17.60;91.00;;;;;;5117082;28;20270;-77
2022/05/06 03:53:17;;;;;;;;;;;17.50;91.70;;;;;;5116947;28;19931;-77
2022/05/06 03:55:44;;;;;;;;;;;17.50;91.80;;;;;;5116709;28;19912;-78
2022/05/06 03:58:11;;;;;;;;;;;17.50;91.30;;;;;;5116961;28;19912;-77
2022/05/06 04:00:37;;;;;;;;;;;17.50;92.00;;;;;;5116871;28;20274;-78
2022/05/06 04:03:04;;;;;;;;;;;17.50;91.30;;;;;;5116762;28;20328;-78
2022/05/06 04:05:32;;;;;;;;;;;17.50;91.80;;;;;;5116621;28;19961;-78
2022/05/06 04:08:00;;;;;;;;;;;17.50;91.90;;;;;;5116753;28;19943;-78
2022/05/06 04:10:27;;;;;;;;;;;17.50;91.20;;;;;;5116671;28;19908;-78
2022/05/06 04:12:54;;;;;;;;;;;17.50;91.80;;;;;;5116666;28;20274;-79
2022/05/06 04:15:21;;;;;;;;;;;17.60;92.30;;;;;;5116492;28;19912;-79
2022/05/06 04:17:47;;;;;;;;;;;17.60;91.80;;;;;;5116466;28;19908;-77
2022/05/06 04:25:43;;;;;;;;;;;17.60;91.70;;;;;;5116231;28;19915;-78
2022/05/06 04:28:10;;;;;;;;;;;17.60;91.90;;;;;;5115224;28;20301;-77
2022/05/06 04:30:37;;;;;;;;;;;17.60;90.60;;;;;;5116290;28;19955;-76
2022/05/06 04:33:04;;;;;;;;;;;17.70;91.00;;;;;;5116423;28;19919;-77
2022/05/06 04:35:31;;;;;;;;;;;17.70;91.00;;;;;;5115725;28;20350;-77
2022/05/06 04:37:57;;;;;;;;;;;17.70;92.40;;;;;;5116174;28;19990;-76
2022/05/06 04:40:24;;;;;;;;;;;17.60;91.40;;;;;;5116034;28;19947;-79
2022/05/06 04:42:51;;;;;;;;;;;17.60;91.90;;;;;;5116124;28;19961;-76
2022/05/06 04:45:17;;;;;;;;;;;17.80;91.90;;;;;;5116087;28;19958;-76
2022/05/06 04:47:44;;;;;;;;;;;17.60;91.20;;;;;;5115774;28;20261;-77
2022/05/06 04:50:11;;;;;;;;;;;17.60;91.30;;;;;;5115608;28;19919;-77
2022/05/06 04:52:37;;;;;;;;;;;17.60;91.30;;;;;;5115992;28;20319;-77
2022/05/06 04:55:04;;;;;;;;;;;17.60;91.20;;;;;;5115481;28;20385;-76
2022/05/06 04:57:31;;;;;;;;;;;17.60;90.80;;;;;;5115601;28;19907;-76
2022/05/06 04:59:57;;;;;;;;;;;17.60;90.40;;;;;;5115794;28;19908;-77
2022/05/06 05:02:26;;;;;;;;;;;17.60;91.40;;;;;;5115858;28;20007;-77
2022/05/06 05:04:56;;;;;;;;;;;17.70;90.90;;;;;;5115377;28;19908;-77
2022/05/06 05:07:23;;;;;;;;;;;17.70;91.70;;;;;;5115700;28;19961;-76
2022/05/06 05:09:50;;;;;;;;;;;17.60;90.40;;;;;;5115424;28;19918;-77
2022/05/06 05:12:18;;;;;;;;;;;17.70;90.90;;;;;;5115054;28;20282;-76
2022/05/06 05:14:45;;;;;;;;;;;17.70;90.70;;;;;;5115405;28;19914;-77
2022/05/06 05:17:11;;;;;;;;;;;17.80;90.90;;;;;;5115404;28;19916;-77
2022/05/06 05:19:38;;;;;;;;;;;17.80;90.40;;;;;;5114951;28;20323;-77
2022/05/06 05:22:05;;;;;;;;;;;17.80;90.60;;;;;;5115401;28;19908;-77
2022/05/06 05:24:32;;;;;;;;;;;17.80;90.80;;;;;;5115179;28;19908;-76
2022/05/06 05:26:59;;;;;;;;;;;17.80;90.20;;;;;;5114890;28;20230;-77
2022/05/06 05:29:26;;;;;;;;;;;17.80;90.20;;;;;;5114908;28;19954;-77
2022/05/06 05:31:52;;;;;;;;;;;17.80;91.10;;;;;;5115012;28;19908;-76
2022/05/06 05:34:19;;;;;;;;;;;17.80;91.30;;;;;;5114876;28;20270;-77
2022/05/06 05:36:46;;;;;;;;;;;17.90;90.90;;;;;;5114954;28;19923;-77
2022/05/06 05:39:13;;;;;;;;;;;17.80;90.70;;;;;;5114864;28;19911;-77
2022/05/06 05:41:39;;;;;;;;;;;17.80;90.70;;;;;;5114770;28;19968;-76
2022/05/06 05:49:35;;;;;;;;;;;17.70;91.30;;;;;;5114645;28;20392;-77
2022/05/06 05:52:02;;;;;;;;;;;17.60;92.00;;;;;;5114591;28;19915;-77
2022/05/06 05:54:29;;;;;;;;;;;17.60;91.50;;;;;;5114630;28;20410;-76
2022/05/06 05:56:56;;;;;;;;;;;17.60;91.90;;;;;;5114441;28;19916;-77
2022/05/06 05:59:23;;;;;;;;;;;17.60;92.50;;;;;;5113238;28;19908;-77
2022/05/06 06:01:50;;;;;;;;;;;17.50;92.70;;;;;;5114278;28;20018;-77
2022/05/06 06:04:16;;;;;;;;;;;17.50;91.70;;;;;;5114374;28;19908;-77
2022/05/06 06:06:43;;;;;;;;;;;17.40;93.30;;;;;;5113959;28;19908;-77
2022/05/06 06:09:10;;;;;;;;;;;17.40;92.00;;;;;;5114336;28;19908;-76
2022/05/06 06:11:36;;;;;;;;;;;17.40;91.90;;;;;;5114307;28;19931;-77
2022/05/06 06:14:03;;;;;;;;;;;17.30;92.30;;;;;;5114532;28;19912;-77
2022/05/06 06:16:30;;;;;;;;;;;17.30;92.70;;;;;;5114144;28;20286;-77
2022/05/06 06:18:58;;;;;;;;;;;17.40;93.50;;;;;;5114036;28;19911;-77
2022/05/06 06:21:25;;;;;;;;;;;17.30;92.70;;;;;;5114097;28;20415;-77
2022/05/06 06:23:52;;;;;;;;;;;17.20;92.50;;;;;;5113832;28;19953;-77
2022/05/06 06:26:18;;;;;;;;;;;17.20;92.50;;;;;;5114083;28;20362;-77
2022/05/06 06:28:45;;;;;;;;;;;17.30;92.70;;;;;;5114032;28;19908;-77
2022/05/06 06:31:12;;;;;;;;;;;17.30;93.20;;;;;;5113886;28;19907;-77
2022/05/06 06:33:39;;;;;;;;;;;17.20;92.60;;;;;;5113381;28;19919;-77
2022/05/06 06:36:06;;;;;;;;;;;17.20;93.10;;;;;;5113910;28;20278;-77
2022/05/06 06:38:32;;;;;;;;;;;17.20;94.00;;;;;;5114110;28;20315;-77
2022/05/06 06:41:03;;;;;;;;;;;17.20;93.00;;;;;;5113815;28;19915;-77
2022/05/06 06:43:29;;;;;;;;;;;17.10;93.70;;;;;;5113894;28;20353;-77
2022/05/06 06:45:59;;;;;;;;;;;17.00;94.50;;;;;;5113974;28;19907;-76
2022/05/06 06:48:26;;;;;;;;;;;17.00;95.50;;;;;;5113738;28;20007;-77
2022/05/06 06:50:53;;;;;;;;;;;17.00;93.90;;;;;;5112210;28;20289;-77
2022/05/06 06:53:20;;;;;;;;;;;16.90;93.90;;;;;;5111683;28;20352;-77
2022/05/06 06:55:47;;;;;;;;;;;16.90;94.50;;;;;;5111527;28;20317;-78
2022/05/06 06:58:13;;;;;;;;;;;16.80;95.50;;;;;;5111470;28;19914;-76
2022/05/06 07:00:42;;;;;;;;;;;16.70;94.30;;;;;;5111381;28;20255;-77
2022/05/06 07:03:10;;;;;;;;;;;16.70;94.20;;;;;;5111557;28;20699;-77
2022/05/06 07:05:36;;;;;;;;;;;16.70;94.60;;;;;;5110865;28;20007;-78
2022/05/06 07:13:33;;;;;;;;;;;16.60;95.00;;;;;;5111512;28;19915;-77
2022/05/06 07:16:00;;;;;;;;;;;16.60;94.80;;;;;;5111150;28;19912;-77
2022/05/06 07:18:26;;;;;;;;;;;16.60;94.80;;;;;;5111964;28;19908;-77
2022/05/06 07:20:54;;;;;;;;;;;16.50;95.80;;;;;;5115365;28;19908;-78
2022/05/06 07:23:22;;;;;;;;;;;16.50;95.40;;;;;;5115442;28;19968;-78
2022/05/06 07:25:48;;;;;;;;;;;16.40;96.00;;;;;;5115154;28;20018;-78
2022/05/06 07:28:15;;;;;;;;;;;16.50;95.10;;;;;;5115234;28;19960;-78
2022/05/06 07:30:41;;;;;;;;;;;16.40;95.10;;;;;;5114916;28;19907;-78
2022/05/06 07:33:08;;;;;;;;;;;16.40;95.30;;;;;;5114770;28;19951;-76
2022/05/06 07:35:36;;;;;;;;;;;16.40;95.50;;;;;;5113520;28;19959;-77
2022/05/06 07:38:03;;;;;;;;;;;16.40;95.80;;;;;;5115031;28;19908;-77
2022/05/06 07:40:29;;;;;;;;;;;16.40;95.90;;;;;;5114806;28;19908;-78
2022/05/06 07:42:56;;;;;;;;;;;16.30;95.80;;;;;;5114732;28;19915;-78
2022/05/06 07:45:23;;;;;;;;;;;16.20;95.80;;;;;;5114624;28;19951;-79
2022/05/06 07:47:50;;;;;;;;;;;16.20;95.90;;;;;;5114408;28;19911;-78
2022/05/06 07:50:16;;;;;;;;;;;16.20;96.40;;;;;;5114605;28;20094;-78
2022/05/06 07:52:43;;;;;;;;;;;16.30;97.90;;;;;;5114890;28;19981;-78
2022/05/06 07:55:13;;;;;;;;;;;16.30;95.70;;;;;;5114657;28;19916;-76
2022/05/06 07:57:40;;;;;;;;;;;16.30;95.90;;;;;;5114251;28;20326;-77
2022/05/06 08:00:07;;;;;;;;;;;16.30;96.60;;;;;;5114931;28;20002;-77
2022/05/06 08:05:18;;;;;;;;;;;16.40;95.70;;;;;;5114548;28;19962;-78
2022/05/06 08:07:45;;;;;;;;;;;16.30;95.90;;;;;;5114306;28;19908;-79
2022/05/06 08:10:12;;;;;;;;;;;16.40;95.70;;;;;;5114066;28;20518;-79
2022/05/06 08:12:38;;;;;;;;;;;16.40;95.80;;;;;;5114423;28;19912;-78
2022/05/06 08:15:05;;;;;;;;;;;16.40;95.80;;;;;;5114172;28;19912;-79
2022/05/06 08:17:32;;;;;;;;;;;16.40;96.40;;;;;;5113407;28;19952;-77
2022/05/06 08:19:59;;;;;;;;;;;16.40;95.90;;;;;;5114046;28;19997;-78
2022/05/06 08:22:28;;;;;;;;;;;16.40;95.50;;;;;;5113746;28;19911;-79
2022/05/06 08:24:57;;;;;;;;;;;16.40;96.00;;;;;;5114065;28;19914;-77
2022/05/06 08:27:24;;;;;;;;;;;16.40;96.00;;;;;;5113977;28;19914;-78
2022/05/06 08:29:50;;;;;;;;;;;16.40;95.60;;;;;;5113107;28;19916;-79
2022/05/06 08:32:17;;;;;;;;;;;16.30;96.10;;;;;;5113905;28;20015;-78
2022/05/06 08:34:47;;;;;;;;;;;16.30;96.00;;;;;;5113825;28;19963;-78
2022/05/06 08:37:14;;;;;;;;;;;16.30;96.20;;;;;;5113341;28;20042;-79
2022/05/06 08:39:41;;;;;;;;;;;16.30;96.00;;;;;;5113587;28;19912;-79
2022/05/06 08:42:08;;;;;;;;;;;16.30;95.70;;;;;;5114203;28;19946;-79
2022/05/06 08:52:58;;;;;;;;;;;16.40;96.30;;;;;;5104819;28;19908;-77
2022/05/06 08:55:25;;;;;;;;;;;16.40;96.50;;;;;;5113543;28;20290;-78
2022/05/06 08:57:51;;;;;;;;;;;16.30;95.60;;;;;;5113594;28;19920;-78
2022/05/06 09:00:22;;;;;;;;;;;16.30;96.00;;;;;;5113666;28;19912;-79
2022/05/06 09:02:50;;;;;;;;;;;16.30;95.70;;;;;;5111791;28;19977;-78
2022/05/06 09:05:18;;;;;;;;;;;16.30;96.60;;;;;;5114061;28;19908;-77
2022/05/06 09:08:14;;;;;;;;;;;16.30;95.80;;;;;;5115392;28;19908;-77
2022/05/06 09:10:40;;;;;;;;;;;16.20;96.60;;;;;;5102212;28;19908;-77
2022/05/06 09:13:07;;;;;;;;;;;16.20;96.00;;;;;;5115450;28;19915;-77
2022/05/06 09:18:20;;;;;;;;;;;16.20;96.40;;;;;;5115544;28;20014;-77
2022/05/06 09:20:47;;;;;;;;;;;16.10;96.10;;;;;;5115245;28;20428;-77
2022/05/06 09:23:27;;;;;;;;;;;16.10;95.90;;;;;;5115146;28;20346;-77
2022/05/06 09:25:55;;;;;;;;;;;16.00;96.80;;;;;;5114957;28;19914;-77
2022/05/06 09:28:22;;;;;;;;;;;15.90;96.50;;;;;;5115058;28;19961;-77
2022/05/06 09:31:08;;;;;;;;;;;15.90;96.60;;;;;;5115128;28;19956;-77
2022/05/06 09:33:40;;;;;;;;;;;15.80;96.00;;;;;;5114943;28;20002;-77
2022/05/06 09:36:25;;;;;;;;;;;15.80;96.50;;;;;;5114897;28;19916;-77
2022/05/06 09:39:07;;;;;;;;;;;15.80;96.50;;;;;;5115026;28;20359;-77
2022/05/06 09:41:36;;;;;;;;;;;15.90;95.60;;;;;;5114118;28;19908;-76
2022/05/06 09:44:04;;;;;;;;;;;15.90;94.50;;;;;;5114507;28;19986;-78
2022/05/06 09:46:31;;;;;;;;;;;16.10;95.10;;;;;;5114878;28;20307;-77
2022/05/06 09:48:59;;;;;;;;;;;16.10;96.10;;;;;;5114724;28;19908;-78
2022/05/06 09:51:27;;;;;;;;;;;16.00;95.80;;;;;;5114664;28;19919;-78
2022/05/06 09:53:57;;;;;;;;;;;16.00;96.40;;;;;;5114472;28;19914;-77
2022/05/06 09:56:24;;;;;;;;;;;16.00;94.70;;;;;;5114404;28;20282;-76
2022/05/06 09:58:54;;;;;;;;;;;16.00;95.00;;;;;;5114500;28;19915;-77
2022/05/06 10:01:21;;;;;;;;;;;15.90;95.00;;;;;;5114409;28;20359;-77
2022/05/06 10:03:48;;;;;;;;;;;15.80;95.40;;;;;;5114084;28;19908;-76
2022/05/06 10:06:14;;;;;;;;;;;15.80;95.60;;;;;;5114332;28;19961;-76
2022/05/06 10:08:47;;;;;;;;;;;15.70;96.30;;;;;;5114388;28;19908;-76
2022/05/06 10:11:15;;;;;;;;;;;15.70;97.10;;;;;;5114474;28;19915;-76
2022/05/06 10:13:43;;;;;;;;;;;15.60;96.80;;;;;;5114105;28;19908;-76
2022/05/06 10:16:10;;;;;;;;;;;15.60;97.60;;;;;;5114260;28;20413;-76
2022/05/06 10:18:38;;;;;;;;;;;15.50;97.50;;;;;;5114088;28;19915;-77
2022/05/06 10:21:08;;;;;;;;;;;15.50;97.70;;;;;;5114447;28;20370;-78
2022/05/06 10:23:44;;;;;;;;;;;15.40;97.60;;;;;;5114035;28;19914;-77
2022/05/06 10:26:30;;;;;;;;;;;15.30;97.80;;;;;;5113970;28;19915;-76
2022/05/06 10:34:29;;;;;;;;;;;15.10;98.90;;;;;;5114058;28;19915;-76
2022/05/06 10:36:56;;;;;;;;;;;15.00;99.20;;;;;;5113656;28;19916;-77
2022/05/06 10:39:35;;;;;;;;;;;15.00;99.50;;;;;;5113879;28;19930;-78
2022/05/06 10:42:02;;;;;;;;;;;14.90;99.60;;;;;;5113837;28;19915;-76
2022/05/06 10:44:51;;;;;;;;;;;14.90;99.70;;;;;;5113827;28;19995;-77
2022/05/06 10:47:21;;;;;;;;;;;14.80;99.60;;;;;;5103101;28;19915;-76
2022/05/06 10:49:50;;;;;;;;;;;14.80;99.80;;;;;;5113528;28;19959;-78
2022/05/06 10:52:34;;;;;;;;;;;14.80;99.90;;;;;;5113796;28;19908;-77
2022/05/06 10:55:03;;;;;;;;;;;14.70;99.90;;;;;;5097134;28;19916;-77
2022/05/06 10:57:30;;;;;;;;;;;14.70;99.90;;;;;;5105470;28;19963;-78
2022/05/06 10:59:57;;;;;;;;;;;14.70;99.90;;;;;;5073067;28;19909;-78
2022/05/06 11:02:25;;;;;;;;;;;14.60;99.90;;;;;;5105152;28;20290;-79
2022/05/06 11:04:56;;;;;;;;;;;14.60;99.90;;;;;;5072598;28;20002;-79
2022/05/06 11:07:23;;;;;;;;;;;14.60;99.90;;;;;;5073372;28;19909;-79
2022/05/06 11:09:51;;;;;;;;;;;14.60;99.90;;;;;;5073078;28;19913;-79
2022/05/06 11:12:34;;;;;;;;;;;14.50;99.90;;;;;;5073209;28;20453;-79
2022/05/06 11:15:04;;;;;;;;;;;14.50;99.90;;;;;;5073231;28;19931;-80
2022/05/06 11:17:34;;;;;;;;;;;14.50;99.90;;;;;;5072707;28;19916;-80
2022/05/06 11:20:01;;;;;;;;;;;14.40;99.90;;;;;;5072587;28;19971;-80
2022/05/06 11:22:28;;;;;;;;;;;14.40;99.90;;;;;;5073095;28;19998;-79
2022/05/06 11:24:58;;;;;;;;;;;14.50;99.90;;;;;;5073121;28;19915;-80
2022/05/06 11:27:25;;;;;;;;;;;14.40;99.90;;;;;;5073027;28;19924;-79
2022/05/06 11:29:57;;;;;;;;;;;14.40;99.90;;;;;;5072676;28;20007;-79
2022/05/06 11:32:24;;;;;;;;;;;14.40;99.90;;;;;;5072861;28;19930;-80
2022/05/06 11:34:54;;;;;;;;;;;14.30;99.90;;;;;;5072597;28;19909;-80
2022/05/06 11:37:25;;;;;;;;;;;14.30;99.90;;;;;;5073200;28;20347;-77
2022/05/06 11:39:51;;;;;;;;;;;14.30;99.90;;;;;;5072440;28;19909;-78
2022/05/06 11:42:19;;;;;;;;;;;14.20;99.90;;;;;;5072824;28;20018;-77
2022/05/06 11:47:51;;;;;;;;;;;14.20;99.90;;;;;;5072383;28;19942;-79
2022/05/06 11:50:18;;;;;;;;;;;14.10;99.90;;;;;;5071928;28;19928;-79
2022/05/06 11:52:45;;;;;;;;;;;14.10;99.90;;;;;;5072784;28;19909;-79
2022/05/06 11:55:12;;;;;;;;;;;14.00;99.90;;;;;;5072655;28;19915;-79
2022/05/06 11:57:39;;;;;;;;;;;14.00;99.90;;;;;;5072446;28;20355;-79
2022/05/06 12:00:07;;;;;;;;;;;14.00;99.90;;;;;;5072721;28;19909;-78
2022/05/06 12:02:34;;;;;;;;;;;13.90;99.90;;;;;;5072571;28;19909;-77
2022/05/06 12:05:00;;;;;;;;;;;13.90;99.90;;;;;;5072296;28;19908;-77
2022/05/06 12:08:02;;;;;;;;;;;13.90;99.90;;;;;;5074599;28;20263;-80
2022/05/06 12:10:30;;;;;;;;;;;13.80;99.90;;;;;;5054092;28;19944;-79
2022/05/06 12:12:58;;;;;;;;;;;13.80;99.90;;;;;;5071806;28;19908;-78
2022/05/06 12:15:31;;;;;;;;;;;13.70;99.90;;;;;;5076075;28;19994;-78
2022/05/06 12:18:09;;;;;;;;;;;13.70;99.90;;;;;;5075883;28;19919;-79
2022/05/06 12:20:43;;;;;;;;;;;13.70;99.90;;;;;;5076032;28;19999;-80
2022/05/06 12:23:10;;;;;;;;;;;13.60;99.90;;;;;;5075880;28;19909;-79
2022/05/06 12:25:41;;;;;;;;;;;13.60;99.90;;;;;;5075667;28;19987;-78
2022/05/06 12:28:18;;;;;;;;;;;13.60;99.90;;;;;;5076258;28;19999;-79
2022/05/06 12:30:46;;;;;;;;;;;13.50;99.90;;;;;;5075857;28;19908;-78
2022/05/06 12:33:13;;;;;;;;;;;13.50;99.90;;;;;;5075635;28;19950;-79
2022/05/06 12:35:58;;;;;;;;;;;13.50;99.90;;;;;;5075449;28;19923;-79
2022/05/06 12:38:26;;;;;;;;;;;13.50;99.90;;;;;;5075053;28;20423;-79
2022/05/06 12:40:53;;;;;;;;;;;13.50;99.90;;;;;;5075660;28;19908;-79
2022/05/06 12:43:29;;;;;;;;;;;13.50;99.90;;;;;;5075751;28;19999;-79
2022/05/06 12:45:59;;;;;;;;;;;13.50;99.90;;;;;;5075426;28;19956;-80
2022/05/06 12:51:12;;;;;;;;;;;13.40;99.90;;;;;;5043861;28;20021;-79
2022/05/06 12:53:39;;;;;;;;;;;13.40;99.90;;;;;;5074659;28;19912;-78
2022/05/06 12:56:05;;;;;;;;;;;13.30;99.90;;;;;;5075435;28;19924;-78
2022/05/06 12:58:32;;;;;;;;;;;13.40;99.90;;;;;;5075419;28;19908;-79
2022/05/06 13:01:00;;;;;;;;;;;13.30;99.90;;;;;;5075247;28;19966;-78
2022/05/06 13:03:29;;;;;;;;;;;13.30;99.90;;;;;;5075183;28;19912;-79
2022/05/06 13:05:55;;;;;;;;;;;13.30;99.90;;;;;;5075152;28;19909;-78
2022/05/06 13:08:24;;;;;;;;;;;13.20;99.90;;;;;;5074507;28;19909;-78
2022/05/06 13:10:51;;;;;;;;;;;13.20;99.90;;;;;;5074877;28;19908;-78
2022/05/06 13:13:18;;;;;;;;;;;13.20;99.90;;;;;;5074895;28;20282;-78
2022/05/06 13:15:44;;;;;;;;;;;13.20;99.90;;;;;;5074141;28;19916;-79
2022/05/06 13:18:11;;;;;;;;;;;13.10;99.90;;;;;;5074727;28;19913;-78
2022/05/06 13:20:38;;;;;;;;;;;13.10;99.90;;;;;;5074712;28;19908;-77
2022/05/06 13:23:04;;;;;;;;;;;13.10;99.90;;;;;;5074241;28;20377;-77
2022/05/06 13:25:31;;;;;;;;;;;13.00;99.90;;;;;;5074447;28;19908;-77
2022/05/06 13:27:58;;;;;;;;;;;13.10;99.90;;;;;;5074828;28;20282;-78
2022/05/06 13:30:24;;;;;;;;;;;13.00;99.90;;;;;;5074403;28;19946;-77
2022/05/06 13:32:51;;;;;;;;;;;13.00;99.90;;;;;;5074508;28;20274;-77
2022/05/06 13:35:18;;;;;;;;;;;13.00;99.90;;;;;;5074367;28;20008;-77
2022/05/06 13:37:44;;;;;;;;;;;13.00;99.90;;;;;;5074148;28;20011;-77
2022/05/06 13:40:11;;;;;;;;;;;13.00;99.90;;;;;;5074431;28;19908;-78
2022/05/06 13:42:38;;;;;;;;;;;13.00;99.90;;;;;;5074318;28;19908;-77
2022/05/06 13:45:05;;;;;;;;;;;13.00;99.90;;;;;;5074205;28;19922;-77
2022/05/06 13:47:31;;;;;;;;;;;13.00;99.90;;;;;;5073998;28;19909;-78
2022/05/06 13:49:58;;;;;;;;;;;12.90;99.90;;;;;;5074029;28;20319;-77
2022/05/06 13:52:25;;;;;;;;;;;12.90;99.90;;;;;;5073587;28;19936;-77
2022/05/06 13:54:52;;;;;;;;;;;12.90;99.90;;;;;;5074107;28;20309;-77
2022/05/06 14:00:04;;;;;;;;;;;12.80;99.90;;;;;;5074141;28;20401;-78
2022/05/06 14:02:31;;;;;;;;;;;12.70;99.90;;;;;;5077842;28;19969;-77
2022/05/06 14:04:57;;;;;;;;;;;12.70;99.90;;;;;;5079454;28;20317;-77
2022/05/06 14:07:24;;;;;;;;;;;12.70;99.90;;;;;;5074059;28;19915;-76
2022/05/06 14:09:51;;;;;;;;;;;12.70;99.90;;;;;;5073833;28;20015;-76
2022/05/06 14:12:18;;;;;;;;;;;12.70;99.90;;;;;;5073859;28;19944;-77
2022/05/06 14:14:44;;;;;;;;;;;12.70;99.90;;;;;;5089521;28;20343;-77
2022/05/06 14:17:11;;;;;;;;;;;12.80;99.90;;;;;;5073609;28;19924;-77
2022/05/06 14:19:37;;;;;;;;;;;12.70;99.90;;;;;;5073587;28;20035;-76
2022/05/06 14:22:04;;;;;;;;;;;12.70;99.90;;;;;;5073881;28;19908;-76
2022/05/06 14:24:31;;;;;;;;;;;12.70;99.90;;;;;;5073721;28;20449;-76
2022/05/06 14:26:58;;;;;;;;;;;12.70;99.90;;;;;;5073786;28;20287;-76
2022/05/06 14:29:24;;;;;;;;;;;12.70;99.90;;;;;;5073174;28;19940;-76
2022/05/06 14:31:51;;;;;;;;;;;12.80;99.90;;;;;;5088927;28;20287;-76
2022/05/06 14:34:18;;;;;;;;;;;12.70;99.90;;;;;;5073801;27;20275;-76
2022/05/06 14:36:44;;;;;;;;;;;12.70;99.90;;;;;;5073645;27;19924;-76
2022/05/06 14:39:11;;;;;;;;;;;12.70;99.90;;;;;;5073635;28;19916;-76
2022/05/06 14:41:38;;;;;;;;;;;12.70;99.90;;;;;;5073328;28;20403;-77
2022/05/06 14:44:05;;;;;;;;;;;12.70;99.90;;;;;;5073569;28;19908;-77
2022/05/06 14:46:31;;;;;;;;;;;12.70;99.90;;;;;;5073323;28;19916;-77
2022/05/06 14:48:58;;;;;;;;;;;12.70;99.90;;;;;;5073343;28;19970;-76
2022/05/06 14:51:25;;;;;;;;;;;12.70;99.90;;;;;;5073264;28;19928;-77
2022/05/06 14:53:51;;;;;;;;;;;12.60;99.90;;;;;;5072997;28;19955;-77
2022/05/06 14:56:19;;;;;;;;;;;12.70;99.90;;;;;;5073232;28;19956;-77
2022/05/06 14:58:45;;;;;;;;;;;12.70;99.90;;;;;;5073331;28;20275;-77
2022/05/06 15:01:12;;;;;;;;;;;12.60;99.90;;;;;;5073233;28;19992;-77
2022/05/06 15:03:39;;;;;;;;;;;12.60;99.90;;;;;;5073070;28;19958;-77
2022/05/06 15:06:05;;;;;;;;;;;12.60;99.90;;;;;;5073276;28;19912;-76
2022/05/06 15:08:32;;;;;;;;;;;12.60;99.90;;;;;;5073213;28;19908;-77
2022/05/06 15:10:59;;;;;;;;;;;12.60;99.90;;;;;;5073247;28;19913;-76
2022/05/06 15:13:28;;;;;;;;;;;12.60;99.90;;;;;;5073211;28;20355;-77